createdAt,value
2023-08-28T00:01:11.448Z,98148.72
2023-08-28T00:03:38.009Z,98152.97
2023-08-28T00:06:05.089Z,98150.38
2023-08-28T00:08:31.814Z,98143.03
2023-08-28T00:10:58.401Z,98127.22
2023-08-28T00:13:24.927Z,98132.09
2023-08-28T00:15:51.487Z,98122.53
2023-08-28T00:18:18.167Z,98125.56
2023-08-28T00:20:44.672Z,98116.44
2023-08-28T00:23:11.173Z,98116.44
2023-08-28T00:25:37.661Z,98104.06
2023-08-28T00:28:04.465Z,98103.63
2023-08-28T00:30:30.957Z,98103.44
2023-08-28T00:32:57.564Z,98102.63
2023-08-28T00:35:24.198Z,98108.72
2023-08-28T00:37:50.774Z,98096.72
2023-08-28T00:40:17.674Z,98099.56
2023-08-28T00:42:44.285Z,98095.53
2023-08-28T00:45:12.265Z,98092.28
2023-08-28T00:47:39.540Z,98095.94
2023-08-28T00:50:06.783Z,98098.97
2023-08-28T00:52:34.128Z,98096.56
2023-08-28T00:55:01.099Z,98109.31
2023-08-28T00:57:29.330Z,98106.28
2023-08-28T00:59:56.843Z,98098.78
2023-08-28T01:02:23.568Z,98090.03
2023-08-28T01:04:53.213Z,98089.03
2023-08-28T01:07:27.184Z,98101.41
2023-08-28T01:10:12.509Z,98103.41
2023-08-28T01:12:53.098Z,98106.44
2023-08-28T01:15:22.194Z,98099.56
2023-08-28T01:18:04.059Z,98092.25
2023-08-28T01:20:32.888Z,98098.56
2023-08-28T01:23:12.153Z,98105.88
2023-08-28T01:25:39.117Z,98121.25
2023-08-28T01:28:05.894Z,98135.06
2023-08-28T01:30:32.927Z,98149.28
2023-08-28T01:32:59.511Z,98140.53
2023-08-28T01:35:28.161Z,98128.56
2023-08-28T01:38:07.004Z,98125.34
2023-08-28T01:40:58.554Z,98130.63
2023-08-28T01:43:28.892Z,98145.44
2023-08-28T01:45:56.115Z,98135.31
2023-08-28T01:48:22.708Z,98136.13
2023-08-28T01:50:49.243Z,98133.47
2023-08-28T01:53:16.728Z,98131.44
2023-08-28T01:55:46.281Z,98130.63
2023-08-28T01:58:14.371Z,98140.59
2023-08-28T02:00:40.990Z,98149.69
2023-08-28T02:03:10.147Z,98147.63
2023-08-28T02:05:37.598Z,98150.69
2023-08-28T02:08:05.500Z,98151.69
2023-08-28T02:10:32.188Z,98154.97
2023-08-28T02:12:58.758Z,98156.97
2023-08-28T02:15:25.612Z,98140.72
2023-08-28T02:17:52.197Z,98139.09
2023-08-28T02:20:18.855Z,98148.06
2023-08-28T02:22:45.402Z,98143.38
2023-08-28T02:25:14.785Z,98131.78
2023-08-28T02:27:41.287Z,98140.34
2023-08-28T02:30:08.595Z,98143.63
2023-08-28T02:32:35.289Z,98145.81
2023-08-28T02:35:01.866Z,98138.09
2023-08-28T02:37:28.390Z,98132.41
2023-08-28T02:39:54.889Z,98122.06
2023-08-28T02:42:21.438Z,98121.44
2023-08-28T02:44:48.106Z,98113.72
2023-08-28T02:47:14.654Z,98105.44
2023-08-28T02:49:41.130Z,98100.16
2023-08-28T02:52:08.134Z,98094.09
2023-08-28T02:54:34.724Z,98083.53
2023-08-28T02:57:01.786Z,98077.84
2023-08-28T02:59:28.773Z,98068.72
2023-08-28T03:01:55.357Z,98064.44
2023-08-28T03:04:21.932Z,98068.47
2023-08-28T03:06:48.570Z,98067.66
2023-08-28T03:09:17.920Z,98071.13
2023-08-28T03:11:44.472Z,98074.56
2023-08-28T03:14:11.062Z,98067.03
2023-08-28T03:16:37.643Z,98064.41
2023-08-28T03:19:04.542Z,98060.19
2023-08-28T03:21:31.467Z,98065.66
2023-08-28T03:23:57.999Z,98069.50
2023-08-28T03:26:26.695Z,98061.03
2023-08-28T03:28:53.264Z,98056.72
2023-08-28T03:31:23.188Z,98053.69
2023-08-28T03:33:49.766Z,98053.88
2023-08-28T03:36:16.900Z,98059.13
2023-08-28T03:38:43.513Z,98053.25
2023-08-28T03:41:12.936Z,98051.00
2023-08-28T03:43:39.529Z,98052.41
2023-08-28T03:46:06.337Z,98053.84
2023-08-28T03:48:32.860Z,98048.38
2023-08-28T03:50:59.374Z,98047.81
2023-08-28T03:53:26.392Z,98042.13
2023-08-28T03:55:56.075Z,98042.31
2023-08-28T03:58:23.403Z,98047.72
2023-08-28T04:00:55.250Z,98037.81
2023-08-28T04:03:22.296Z,98038.06
2023-08-28T04:05:50.430Z,98028.75
2023-08-28T04:08:16.978Z,98024.50
2023-08-28T04:10:43.948Z,98025.31
2023-08-28T04:13:10.499Z,98022.25
2023-08-28T04:15:38.928Z,98027.09
2023-08-28T04:18:05.885Z,98033.38
2023-08-28T04:20:32.461Z,98029.91
2023-08-28T04:22:58.986Z,98037.38
2023-08-28T04:25:25.507Z,98039.00
2023-08-28T04:27:51.987Z,98045.28
2023-08-28T04:30:18.508Z,98044.28
2023-08-28T04:32:45.066Z,98047.13
2023-08-28T04:35:11.627Z,98046.69
2023-08-28T04:37:38.163Z,98048.72
2023-08-28T04:40:05.392Z,98051.81
2023-08-28T04:42:31.940Z,98054.84
2023-08-28T04:44:58.491Z,98059.88
2023-08-28T04:47:25.170Z,98063.88
2023-08-28T04:49:51.799Z,98065.72
2023-08-28T04:52:18.303Z,98071.78
2023-08-28T04:54:44.794Z,98072.44
2023-08-28T04:57:11.350Z,98063.19
2023-08-28T04:59:37.888Z,98065.59
2023-08-28T05:02:04.585Z,98064.81
2023-08-28T05:04:32.326Z,98065.84
2023-08-28T05:06:59.500Z,98054.69
2023-08-28T05:09:26.086Z,98053.88
2023-08-28T05:11:52.683Z,98057.53
2023-08-28T05:14:19.204Z,98046.97
2023-08-28T05:16:45.710Z,98043.75
2023-08-28T05:19:12.196Z,98036.03
2023-08-28T05:21:38.762Z,98034.03
2023-08-28T05:24:05.410Z,98034.06
2023-08-28T05:26:31.939Z,98034.47
2023-08-28T05:28:58.495Z,98032.41
2023-08-28T05:31:26.199Z,98037.09
2023-08-28T05:33:52.768Z,98039.13
2023-08-28T05:36:20.626Z,98037.28
2023-08-28T05:38:47.929Z,98032.84
2023-08-28T05:41:16.482Z,98033.44
2023-08-28T05:43:46.334Z,98032.81
2023-08-28T05:46:12.897Z,98034.47
2023-08-28T05:48:40.061Z,98039.72
2023-08-28T05:51:06.570Z,98044.59
2023-08-28T05:53:33.532Z,98048.25
2023-08-28T05:56:00.083Z,98053.91
2023-08-28T05:58:26.614Z,98050.84
2023-08-28T06:00:53.141Z,98051.47
2023-08-28T06:03:19.838Z,98055.72
2023-08-28T06:05:46.606Z,98052.28
2023-08-28T06:08:13.836Z,98055.34
2023-08-28T06:10:41.609Z,98055.16
2023-08-28T06:13:10.935Z,98065.88
2023-08-28T06:15:37.438Z,98058.78
2023-08-28T06:18:05.824Z,98069.72
2023-08-28T06:20:32.578Z,98072.94
2023-08-28T06:22:59.167Z,98071.94
2023-08-28T06:25:25.909Z,98079.25
2023-08-28T06:27:52.803Z,98068.88
2023-08-28T06:30:20.451Z,98070.06
2023-08-28T06:32:47.117Z,98077.16
2023-08-28T06:35:13.678Z,98076.94
2023-08-28T06:37:51.686Z,98072.22
2023-08-28T06:40:22.426Z,98074.66
2023-08-28T06:43:16.208Z,98084.38
2023-08-28T06:46:33.507Z,98077.69
2023-08-28T06:49:03.479Z,98082.50
2023-08-28T06:51:30.265Z,98086.16
2023-08-28T06:53:57.979Z,98083.47
2023-08-28T06:56:24.560Z,98073.69
2023-08-28T06:58:51.223Z,98074.47
2023-08-28T07:01:17.863Z,98075.50
2023-08-28T07:03:44.506Z,98075.25
2023-08-28T07:06:11.286Z,98059.06
2023-08-28T07:08:37.851Z,98065.34
2023-08-28T07:11:04.452Z,98046.91
2023-08-28T07:13:31.039Z,98060.03
2023-08-28T07:15:57.932Z,98056.38
2023-08-28T07:18:24.624Z,98049.63
2023-08-28T07:20:51.315Z,98042.69
2023-08-28T07:23:17.936Z,98051.47
2023-08-28T07:25:45.537Z,98041.25
2023-08-28T07:28:12.279Z,98035.50
2023-08-28T07:30:38.942Z,98020.94
2023-08-28T07:33:05.888Z,98027.38
2023-08-28T07:35:36.284Z,98018.25
2023-08-28T07:38:05.028Z,98027.56
2023-08-28T07:40:31.746Z,98023.09
2023-08-28T07:42:58.295Z,98018.59
2023-08-28T07:45:24.933Z,98017.59
2023-08-28T07:47:51.622Z,98009.88
2023-08-28T07:50:18.470Z,98017.06
2023-08-28T07:52:45.022Z,98018.88
2023-08-28T07:55:12.287Z,98024.69
2023-08-28T07:57:39.040Z,98028.72
2023-08-28T08:00:11.409Z,98023.44
2023-08-28T08:02:39.911Z,98024.44
2023-08-28T08:05:07.086Z,98022.25
2023-08-28T08:07:33.717Z,98032.50
2023-08-28T08:10:00.340Z,98031.94
2023-08-28T08:12:29.969Z,98032.50
2023-08-28T08:14:56.479Z,98016.56
2023-08-28T08:17:23.104Z,98017.22
2023-08-28T08:19:49.733Z,98021.03
2023-08-28T08:22:16.271Z,98019.50
2023-08-28T08:24:42.885Z,98021.34
2023-08-28T08:27:09.457Z,98032.78
2023-08-28T08:29:36.001Z,98027.59
2023-08-28T08:32:02.725Z,98020.88
2023-08-28T08:34:29.793Z,98016.72
2023-08-28T08:36:56.412Z,98022.84
2023-08-28T08:39:24.411Z,98016.66
2023-08-28T08:41:51.322Z,98023.59
2023-08-28T08:44:17.904Z,98019.84
2023-08-28T08:46:48.349Z,98019.16
2023-08-28T08:49:20.674Z,98026.28
2023-08-28T08:51:50.015Z,98024.22
2023-08-28T08:54:25.961Z,98033.66
2023-08-28T08:57:01.186Z,98026.38
2023-08-28T08:59:28.005Z,98037.25
2023-08-28T09:01:55.188Z,98044.84
2023-08-28T09:04:22.436Z,98049.38
2023-08-28T09:06:50.339Z,98045.06
2023-08-28T09:09:17.177Z,98058.00
2023-08-28T09:11:46.317Z,98062.16
2023-08-28T09:14:13.824Z,98062.22
2023-08-28T09:16:40.402Z,98057.06
2023-08-28T09:19:08.306Z,98057.41
2023-08-28T09:21:48.889Z,98060.09
2023-08-28T09:24:21.555Z,98065.75
2023-08-28T09:26:55.115Z,98078.50
2023-08-28T09:29:23.726Z,98074.25
2023-08-28T09:31:52.440Z,98076.59
2023-08-28T09:34:21.338Z,98072.56
2023-08-28T09:36:48.091Z,98063.59
2023-08-28T09:39:14.939Z,98064.19
2023-08-28T09:41:47.629Z,98074.78
2023-08-28T09:44:20.103Z,98072.97
2023-08-28T09:46:48.366Z,98069.59
2023-08-28T09:49:15.259Z,98064.41
2023-08-28T09:51:43.791Z,98072.31
2023-08-28T09:54:11.950Z,98077.34
2023-08-28T09:56:39.798Z,98068.03
2023-08-28T09:59:10.751Z,98074.69
2023-08-28T10:01:38.981Z,98066.69
2023-08-28T10:04:07.711Z,98076.41
2023-08-28T10:06:40.528Z,98078.75
2023-08-28T10:09:13.996Z,98073.50
2023-08-28T10:11:40.861Z,98063.31
2023-08-28T10:14:08.436Z,98068.97
2023-08-28T10:16:43.386Z,98068.00
2023-08-28T10:19:39.162Z,98065.94
2023-08-28T10:22:08.567Z,98055.16
2023-08-28T10:24:42.715Z,98051.59
2023-08-28T10:27:11.704Z,98047.97
2023-08-28T10:29:38.882Z,98039.50
2023-08-28T10:32:09.834Z,98038.41
2023-08-28T10:34:40.950Z,98035.19
2023-08-28T10:37:22.148Z,98025.78
2023-08-28T10:39:59.364Z,98029.25
2023-08-28T10:42:28.140Z,98021.09
2023-08-28T10:44:57.998Z,98030.97
2023-08-28T10:47:25.249Z,98025.84
2023-08-28T10:49:55.874Z,98029.47
2023-08-28T10:52:23.489Z,98024.13
2023-08-28T10:54:51.464Z,98023.00
2023-08-28T10:57:41.178Z,98006.38
2023-08-28T11:00:22.373Z,98007.75
2023-08-28T11:03:16.039Z,98005.91
2023-08-28T11:05:43.801Z,98004.50
2023-08-28T11:08:13.101Z,98009.88
2023-08-28T11:10:45.411Z,98007.16
2023-08-28T11:13:21.948Z,98001.66
2023-08-28T11:15:50.883Z,98002.28
2023-08-28T11:18:20.360Z,98000.13
2023-08-28T11:20:49.167Z,97996.25
2023-08-28T11:23:37.752Z,97993.69
2023-08-28T11:26:27.121Z,97990.50
2023-08-28T11:28:54.165Z,97988.06
2023-08-28T11:31:21.111Z,97989.94
2023-08-28T11:33:53.085Z,97982.25
2023-08-28T11:36:20.223Z,97988.31
2023-08-28T11:38:47.974Z,97991.28
2023-08-28T11:41:15.350Z,97995.31
2023-08-28T11:43:43.513Z,97989.88
2023-08-28T11:46:11.516Z,97984.94
2023-08-28T11:48:39.559Z,97987.09
2023-08-28T11:51:10.302Z,97990.22
2023-08-28T11:53:39.228Z,97991.75
2023-08-28T11:56:07.021Z,97990.84
2023-08-28T11:58:35.641Z,97987.25
2023-08-28T12:01:06.460Z,97991.47
2023-08-28T12:03:33.990Z,97986.16
2023-08-28T12:06:07.275Z,97978.03
2023-08-28T12:08:38.437Z,97975.78
2023-08-28T12:11:10.023Z,97974.47
2023-08-28T12:13:37.869Z,97962.16
2023-08-28T12:16:21.699Z,97965.84
2023-08-28T12:18:50.126Z,97973.91
2023-08-28T12:21:18.422Z,97966.13
2023-08-28T12:23:53.970Z,97964.03
2023-08-28T12:26:25.202Z,97963.56
2023-08-28T12:28:53.077Z,97964.97
2023-08-28T12:31:31.621Z,97964.72
2023-08-28T12:33:58.594Z,97968.72
2023-08-28T12:36:35.951Z,97967.41
2023-08-28T12:39:04.614Z,97968.66
2023-08-28T12:41:36.162Z,97966.38
2023-08-28T12:44:04.035Z,97960.84
2023-08-28T12:46:31.393Z,97956.31
2023-08-28T12:48:58.220Z,97963.00
2023-08-28T12:51:25.239Z,97965.59
2023-08-28T12:53:51.946Z,97964.72
2023-08-28T12:56:18.516Z,97968.00
2023-08-28T12:58:45.214Z,97970.69
2023-08-28T13:01:11.877Z,97957.59
2023-08-28T13:03:38.458Z,97958.97
2023-08-28T13:06:05.838Z,97963.75
2023-08-28T13:08:32.477Z,97957.41
2023-08-28T13:10:59.090Z,97962.16
2023-08-28T13:13:26.623Z,97965.84
2023-08-28T13:15:54.732Z,97973.22
2023-08-28T13:18:21.484Z,97970.75
2023-08-28T13:20:48.463Z,97977.69
2023-08-28T13:23:15.037Z,97980.06
2023-08-28T13:25:42.218Z,97978.19
2023-08-28T13:28:08.825Z,97978.81
2023-08-28T13:30:35.679Z,97983.97
2023-08-28T13:33:05.813Z,97984.59
2023-08-28T13:35:34.126Z,97987.56
2023-08-28T13:38:00.923Z,97981.25
2023-08-28T13:40:27.746Z,97982.81
2023-08-28T13:42:55.001Z,97981.91
2023-08-28T13:45:21.628Z,97995.31
2023-08-28T13:47:48.324Z,97996.06
2023-08-28T13:50:15.014Z,98005.28
2023-08-28T13:52:46.161Z,98003.19
2023-08-28T13:55:13.566Z,97993.47
2023-08-28T13:57:40.240Z,97997.47
2023-08-28T14:00:13.098Z,97998.97
2023-08-28T14:02:40.345Z,98002.38
2023-08-28T14:05:08.741Z,97999.41
2023-08-28T14:07:36.237Z,98004.16
2023-08-28T14:10:04.681Z,98008.25
2023-08-28T14:12:31.347Z,97999.28
2023-08-28T14:15:00.872Z,98005.06
2023-08-28T14:17:27.803Z,98002.81
2023-08-28T14:19:54.462Z,98005.78
2023-08-28T14:22:21.020Z,97996.41
2023-08-28T14:24:47.748Z,97995.31
2023-08-28T14:27:14.342Z,97997.06
2023-08-28T14:29:41.094Z,98000.03
2023-08-28T14:32:09.502Z,97996.63
2023-08-28T14:34:36.033Z,97993.81
2023-08-28T14:37:02.654Z,97979.94
2023-08-28T14:39:30.139Z,97973.50
2023-08-28T14:41:56.718Z,97978.47
2023-08-28T14:44:23.336Z,97975.47
2023-08-28T14:46:49.871Z,97980.00
2023-08-28T14:49:16.912Z,97967.28
2023-08-28T14:51:43.435Z,97970.03
2023-08-28T14:54:09.944Z,97970.38
2023-08-28T14:56:36.513Z,97972.16
2023-08-28T14:59:03.967Z,97966.06
2023-08-28T15:01:30.488Z,97965.75
2023-08-28T15:03:56.988Z,97965.22
2023-08-28T15:06:23.479Z,97957.59
2023-08-28T15:08:50.048Z,97964.44
2023-08-28T15:11:16.582Z,97965.84
2023-08-28T15:13:43.089Z,97974.88
2023-08-28T15:16:09.569Z,97963.63
2023-08-28T15:18:36.071Z,97973.06
2023-08-28T15:21:03.111Z,97970.81
2023-08-28T15:23:29.625Z,97968.38
2023-08-28T15:25:56.150Z,97964.84
2023-08-28T15:28:22.739Z,97961.72
2023-08-28T15:30:52.827Z,97965.31
2023-08-28T15:33:19.386Z,97955.66
2023-08-28T15:35:45.867Z,97960.84
2023-08-28T15:38:12.411Z,97968.56
2023-08-28T15:40:38.950Z,97961.69
2023-08-28T15:43:05.782Z,97967.22
2023-08-28T15:45:32.526Z,97965.88
2023-08-28T15:47:59.336Z,97962.88
2023-08-28T15:50:25.930Z,97967.78
2023-08-28T15:52:52.720Z,97966.06
2023-08-28T15:55:19.345Z,97953.97
2023-08-28T15:57:45.894Z,97961.59
2023-08-28T16:00:13.060Z,97956.56
2023-08-28T16:02:39.629Z,97958.16
2023-08-28T16:05:07.319Z,97954.28
2023-08-28T16:07:33.862Z,97959.13
2023-08-28T16:10:01.583Z,97962.63
2023-08-28T16:12:28.107Z,97951.13
2023-08-28T16:14:54.648Z,97946.75
2023-08-28T16:17:21.131Z,97948.28
2023-08-28T16:19:47.680Z,97943.03
2023-08-28T16:22:14.172Z,97948.28
2023-08-28T16:24:40.877Z,97942.16
2023-08-28T16:27:07.697Z,97942.91
2023-08-28T16:29:34.986Z,97941.66
2023-08-28T16:32:02.216Z,97951.31
2023-08-28T16:34:28.998Z,97948.06
2023-08-28T16:36:55.919Z,97951.34
2023-08-28T16:39:22.659Z,97961.84
2023-08-28T16:41:49.280Z,97956.53
2023-08-28T16:44:15.919Z,97957.53
2023-08-28T16:46:42.715Z,97960.69
2023-08-28T16:49:09.436Z,97959.97
2023-08-28T16:51:36.081Z,97960.84
2023-08-28T16:54:02.661Z,97964.94
2023-08-28T16:56:29.373Z,97973.38
2023-08-28T16:58:57.063Z,97971.94
2023-08-28T17:01:23.739Z,97967.72
2023-08-28T17:03:50.445Z,97967.28
2023-08-28T17:06:17.167Z,97967.25
2023-08-28T17:08:43.773Z,97974.78
2023-08-28T17:11:10.391Z,97977.06
2023-08-28T17:13:36.949Z,97974.72
2023-08-28T17:16:04.118Z,97984.09
2023-08-28T17:18:32.094Z,97982.72
2023-08-28T17:20:59.819Z,97985.88
2023-08-28T17:23:26.352Z,97986.94
2023-08-28T17:25:52.843Z,97981.03
2023-08-28T17:28:19.371Z,97981.38
2023-08-28T17:30:45.883Z,97977.13
2023-08-28T17:33:12.438Z,97974.91
2023-08-28T17:35:39.001Z,97966.25
2023-08-28T17:38:06.947Z,97962.63
2023-08-28T17:40:33.486Z,97960.03
2023-08-28T17:42:59.980Z,97953.91
2023-08-28T17:45:26.677Z,97960.28
2023-08-28T17:47:53.172Z,97958.38
2023-08-28T17:50:20.090Z,97957.47
2023-08-28T17:52:46.584Z,97964.00
2023-08-28T17:55:13.078Z,97973.00
2023-08-28T17:57:40.159Z,97970.81
2023-08-28T18:00:07.512Z,97984.91
2023-08-28T18:02:53.861Z,97985.09
2023-08-28T18:05:26.140Z,97991.97
2023-08-28T18:07:52.734Z,97993.56
2023-08-28T18:10:19.274Z,98002.94
2023-08-28T18:12:45.866Z,98008.03
2023-08-28T18:15:12.386Z,98004.00
2023-08-28T18:17:41.137Z,98004.81
2023-08-28T18:20:11.118Z,98008.19
2023-08-28T18:22:37.986Z,98013.41
2023-08-28T18:25:04.837Z,98010.41
2023-08-28T18:27:31.423Z,98013.31
2023-08-28T18:30:23.412Z,98020.16
2023-08-28T18:32:50.124Z,98020.38
2023-08-28T18:35:16.902Z,98020.28
2023-08-28T18:37:43.508Z,98034.25
2023-08-28T18:40:11.258Z,98026.03
2023-08-28T18:42:38.580Z,98034.72
2023-08-28T18:45:05.493Z,98031.72
2023-08-28T18:47:37.679Z,98038.06
2023-08-28T18:50:13.947Z,98036.41
2023-08-28T18:52:48.146Z,98039.63
2023-08-28T18:55:40.514Z,98037.81
2023-08-28T18:58:18.211Z,98049.31
2023-08-28T19:00:52.093Z,98048.84
2023-08-28T19:03:18.835Z,98046.31
2023-08-28T19:05:45.950Z,98047.56
2023-08-28T19:08:22.206Z,98058.88
2023-08-28T19:10:48.946Z,98052.50
2023-08-28T19:13:15.607Z,98055.41
2023-08-28T19:15:42.459Z,98046.28
2023-08-28T19:18:09.882Z,98044.66
2023-08-28T19:20:49.603Z,98039.13
2023-08-28T19:23:24.453Z,98036.47
2023-08-28T19:25:51.514Z,98036.84
2023-08-28T19:28:18.107Z,98032.81
2023-08-28T19:30:44.660Z,98041.13
2023-08-28T19:33:11.354Z,98046.78
2023-08-28T19:35:38.005Z,98048.50
2023-08-28T19:38:04.901Z,98053.56
2023-08-28T19:40:31.643Z,98047.78
2023-08-28T19:42:58.224Z,98056.19
2023-08-28T19:45:24.741Z,98048.88
2023-08-28T19:47:52.438Z,98049.09
2023-08-28T19:50:19.144Z,98039.63
2023-08-28T19:52:45.681Z,98038.47
2023-08-28T19:55:14.950Z,98029.59
2023-08-28T19:57:42.620Z,98029.84
2023-08-28T20:00:11.133Z,98038.44
2023-08-28T20:02:38.192Z,98033.63
2023-08-28T20:05:05.737Z,98035.78
2023-08-28T20:07:32.419Z,98036.91
2023-08-28T20:09:59.055Z,98035.38
2023-08-28T20:12:25.568Z,98029.97
2023-08-28T20:14:52.825Z,98038.78
2023-08-28T20:17:19.596Z,98041.69
2023-08-28T20:19:46.162Z,98037.84
2023-08-28T20:22:12.705Z,98031.38
2023-08-28T20:24:39.280Z,98041.19
2023-08-28T20:27:07.561Z,98030.59
2023-08-28T20:29:34.151Z,98036.31
2023-08-28T20:32:00.761Z,98037.00
2023-08-28T20:34:27.504Z,98040.22
2023-08-28T20:36:54.504Z,98028.25
2023-08-28T20:39:21.257Z,98028.25
2023-08-28T20:41:47.861Z,98029.03
2023-08-28T20:44:14.528Z,98024.44
2023-08-28T20:46:41.346Z,98034.72
2023-08-28T20:49:08.390Z,98021.91
2023-08-28T20:51:37.046Z,98031.22
2023-08-28T20:54:04.120Z,98030.41
2023-08-28T20:56:30.828Z,98021.34
2023-08-28T20:58:57.431Z,98022.81
2023-08-28T21:01:23.999Z,98018.44
2023-08-28T21:03:50.569Z,98013.25
2023-08-28T21:06:17.149Z,98013.38
2023-08-28T21:08:45.200Z,98013.84
2023-08-28T21:11:11.774Z,98019.84
2023-08-28T21:13:38.347Z,98013.69
2023-08-28T21:16:04.909Z,98022.59
2023-08-28T21:18:31.620Z,98032.69
2023-08-28T21:21:01.816Z,98035.75
2023-08-28T21:23:28.956Z,98041.72
2023-08-28T21:26:00.041Z,98038.41
2023-08-28T21:28:34.775Z,98039.16
2023-08-28T21:31:03.629Z,98035.84
2023-08-28T21:33:31.464Z,98033.88
2023-08-28T21:35:59.644Z,98030.56
2023-08-28T21:38:27.426Z,98029.50
2023-08-28T21:40:58.369Z,98022.00
2023-08-28T21:43:25.288Z,98027.50
2023-08-28T21:45:57.857Z,98021.47
2023-08-28T21:48:28.239Z,98021.38
2023-08-28T21:51:13.299Z,98029.78
2023-08-28T21:53:58.606Z,98031.75
2023-08-28T21:56:43.911Z,98024.19
2023-08-28T21:59:29.269Z,98040.88
2023-08-28T22:02:15.115Z,98047.41
2023-08-28T22:05:00.487Z,98047.84
2023-08-28T22:07:39.808Z,98046.59
2023-08-28T22:10:18.426Z,98039.72
2023-08-28T22:13:02.123Z,98033.97
2023-08-28T22:15:32.909Z,98038.28
2023-08-28T22:18:05.106Z,98037.69
2023-08-28T22:20:32.109Z,98031.94
2023-08-28T22:22:59.787Z,98026.66
2023-08-28T22:25:26.943Z,98020.19
2023-08-28T22:27:53.593Z,98014.72
2023-08-28T22:30:20.381Z,98014.34
2023-08-28T22:32:47.184Z,98014.53
2023-08-28T22:35:14.001Z,98017.75
2023-08-28T22:37:40.976Z,98014.69
2023-08-28T22:40:10.765Z,98015.50
2023-08-28T22:42:39.906Z,98011.00
2023-08-28T22:45:06.841Z,98010.06
2023-08-28T22:47:34.800Z,97998.59
2023-08-28T22:50:01.593Z,97992.38
2023-08-28T22:52:28.266Z,97981.38
2023-08-28T22:54:54.960Z,97979.53
2023-08-28T22:57:21.527Z,97981.81
2023-08-28T22:59:48.066Z,97966.19
2023-08-28T23:02:14.655Z,97960.59
2023-08-28T23:04:41.273Z,97964.50
2023-08-28T23:07:08.419Z,97962.31
2023-08-28T23:09:34.922Z,97960.09
2023-08-28T23:12:01.810Z,97958.84
2023-08-28T23:14:28.727Z,97964.75
2023-08-28T23:16:55.468Z,97967.16
2023-08-28T23:19:24.898Z,97968.56
2023-08-28T23:21:54.581Z,97966.69
2023-08-28T23:24:27.361Z,97966.03
2023-08-28T23:27:00.921Z,97967.28
2023-08-28T23:29:27.436Z,97967.28
2023-08-28T23:31:54.010Z,97967.06
2023-08-28T23:34:21.559Z,97967.47
2023-08-28T23:36:50.109Z,97964.19
2023-08-28T23:39:16.720Z,97977.16
2023-08-28T23:41:43.400Z,97987.69
2023-08-28T23:44:10.062Z,97982.69
2023-08-28T23:46:36.646Z,97973.16
2023-08-28T23:49:03.660Z,97987.69
2023-08-28T23:51:30.523Z,97981.38
2023-08-28T23:53:57.405Z,97992.72
2023-08-28T23:56:23.979Z,97991.41
2023-08-28T23:58:56.111Z,97989.84
